Sauk Centre, MN

12:23 AM CST on December 16, 2019 (GMT -0600)
Sauk Centre

Weather History for KD39 - October, 2019

Change the Weather History Date:

Tuesday, October 22, 2019

  Actual Average (KGHW) Record (KGHW)
Temperature  
Mean Temperature 39 °F -  
Max Temperature 41 °F 58 °F 78 °F (1992)
Min Temperature 35 °F 35 °F 21 °F (1997)
Degree Days  
Heating Degree Days 26    
Moisture  
Dew Point 34 °F    
Average Humidity 83    
Maximum Humidity 94    
Minimum Humidity 70    
Precipitation  
Precipitation 0.00 in - - ()
Sea Level Pressure  
Sea Level Pressure 29.54 in    
Wind  
Wind Speed 21 mph ()    
Max Wind Speed 31 mph    
Max Gust Speed 41 mph    
Visibility 9.5 miles    
Events Rain    
Averages and records for this station are not official NWS values.
T = Trace of Precipitation, MM = Missing Value Source: Averaged Metar Reports

Daily Weather History Graph

Daily Weather History Graph

Search for Another Location

Airport or City:

Astronomy

Oct. 22, 2019 Rise Set
Actual Time 7:45 AM CDT 6:22 PM CDT
Civil Twilight 7:15 AM CDT 6:52 PM CDT
Nautical Twilight 6:40 AM CDT 7:27 PM CDT
Astronomical Twilight 6:06 AM CDT 8:01 PM CDT
Moon 12:30 AM CDT (10/22) 3:55 PM CDT (10/22)
Length of Visible Light 11h 37m
Length of Day
10h 36m
Last Quarter, 37% of the Moon is Illuminated
Oct 22
Last Quarter
Oct 27
New
Nov 4
First Quarter
Nov 12
Full
Nov 19
Last Quarter

Hourly Weather History & Observations

Time (CDT) Temp. Windchill Dew Point Humidity Pressure Visibility Wind Dir Wind Speed Gust Speed Precip Events Conditions
12:15 AM 43.0 °F 34.2 °F 39.6 °F 88% 29.35 in 10.0 mi NNW 20.7 mph 34.5 mph N/A Rain Rain
12:35 AM 42.1 °F 31.7 °F 39.7 °F 91% 29.35 in 7.0 mi NW 27.6 mph 35.7 mph N/A Rain Light Rain
12:36 AM 42.1 °F 31.1 °F 39.6 °F 91% 29.35 in 7.0 mi NW 31.1 mph 40.3 mph N/A Rain Light Rain
12:55 AM 41.9 °F 31.9 °F 39.4 °F 91% 29.35 in 10.0 mi NW 25.3 mph 31.1 mph N/A Rain Rain
1:18 AM 41.0 °F 30.7 °F 38.8 °F 92% 29.36 in 7.0 mi NW 25.3 mph 36.8 mph N/A Rain Rain
1:37 AM 41.0 °F 30.7 °F 38.8 °F 92% 29.36 in 7.0 mi NW 25.3 mph 36.8 mph N/A Rain Light Rain
1:56 AM 40.6 °F 30.7 °F 38.7 °F 93% 29.37 in 7.0 mi NW 23.0 mph 34.5 mph N/A   Drizzle
2:15 AM 40.5 °F 30.0 °F 38.5 °F 93% 29.37 in 7.0 mi NW 25.3 mph 35.7 mph N/A   Drizzle
2:35 AM 40.3 °F 29.5 °F 38.3 °F 93% 29.38 in 7.0 mi NW 26.5 mph 36.8 mph N/A   Drizzle
2:40 AM 40.3 °F 29.9 °F 38.3 °F 93% 29.38 in 7.0 mi NW 24.2 mph 38.0 mph N/A   Light Drizzle
2:58 AM 40.3 °F 29.3 °F 38.1 °F 92% 29.38 in 10.0 mi NW 27.6 mph 34.5 mph N/A Rain Rain
3:15 AM 40.1 °F 29.9 °F 37.9 °F 92% 29.39 in 10.0 mi WNW 23.0 mph 32.2 mph N/A   Drizzle
3:35 AM 39.4 °F 28.3 °F 37.6 °F 93% 29.39 in 7.0 mi WNW 26.5 mph 33.4 mph N/A   Drizzle
3:36 AM 39.4 °F 28.5 °F 37.6 °F 93% 29.40 in 7.0 mi WNW 25.3 mph 33.4 mph N/A   Drizzle
3:55 AM 39.4 °F 28.3 °F 37.6 °F 93% 29.40 in 7.0 mi WNW 26.5 mph 35.7 mph N/A   Drizzle
3:56 AM 39.4 °F 28.3 °F 37.6 °F 93% 29.40 in 7.0 mi WNW 26.5 mph 35.7 mph N/A   Drizzle
4:19 AM 39.0 °F 27.6 °F 37.2 °F 93% 29.40 in 7.0 mi WNW 27.6 mph 34.5 mph N/A   Drizzle
4:36 AM 38.3 °F 27.3 °F 36.7 °F 94% 29.41 in 7.0 mi WNW 24.2 mph 34.5 mph N/A   Drizzle
4:56 AM 38.3 °F 27.1 °F 36.1 °F 92% 29.42 in 7.0 mi WNW 25.3 mph 41.4 mph N/A   Light Drizzle
5:15 AM 38.3 °F 27.1 °F 36.0 °F 91% 29.43 in 10.0 mi WNW 25.3 mph 33.4 mph N/A   Overcast
5:16 AM 38.3 °F 27.3 °F 36.0 °F 91% 29.43 in 10.0 mi WNW 24.2 mph 33.4 mph N/A   Overcast
5:35 AM 37.8 °F 27.1 °F 35.8 °F 93% 29.43 in 10.0 mi WNW 21.9 mph 38.0 mph N/A Rain Rain
5:39 AM 37.8 °F 27.1 °F 36.0 °F 93% 29.43 in 10.0 mi WNW 21.9 mph 38.0 mph N/A Rain Rain
5:58 AM 37.4 °F 25.9 °F 35.8 °F 94% 29.44 in 7.0 mi WNW 25.3 mph 32.2 mph N/A   Drizzle
6:15 AM 37.4 °F 27.2 °F 35.6 °F 93% 29.45 in 10.0 mi WNW 19.6 mph 36.8 mph N/A   Light Drizzle
6:35 AM 37.2 °F 25.9 °F 35.4 °F 93% 29.45 in 10.0 mi WNW 24.2 mph 36.8 mph N/A   Light Drizzle
6:36 AM 37.0 °F 25.9 °F 35.4 °F 94% 29.46 in 10.0 mi WNW 23.0 mph 36.8 mph N/A   Light Drizzle
6:55 AM 37.0 °F 26.4 °F 35.2 °F 93% 29.46 in 10.0 mi WNW 20.7 mph 35.7 mph N/A   Light Drizzle
6:56 AM 37.0 °F 25.9 °F 35.4 °F 94% 29.46 in 10.0 mi WNW 23.0 mph 35.7 mph N/A   Light Drizzle
7:18 AM 36.9 °F 24.9 °F 35.1 °F 93% 29.46 in 10.0 mi WNW 26.5 mph 39.1 mph N/A   Drizzle
7:36 AM 36.9 °F 25.4 °F 35.2 °F 94% 29.46 in 10.0 mi WNW 24.2 mph 33.4 mph N/A Rain Rain
7:56 AM 36.9 °F 25.6 °F 35.1 °F 93% 29.47 in 10.0 mi WNW 23.0 mph 33.4 mph N/A   Light Drizzle
8:15 AM 36.7 °F 26.3 °F 34.9 °F 93% 29.47 in 10.0 mi WNW 19.6 mph 38.0 mph N/A   Overcast
8:16 AM 36.7 °F 26.3 °F 34.9 °F 93% 29.47 in 10.0 mi WNW 19.6 mph 38.0 mph N/A   Overcast
8:35 AM 36.7 °F 25.1 °F 34.9 °F 93% 29.47 in 10.0 mi WNW 24.2 mph 29.9 mph N/A   Overcast
8:39 AM 36.7 °F 25.4 °F 34.9 °F 93% 29.48 in 10.0 mi WNW 23.0 mph 31.1 mph N/A   Overcast
8:58 AM 36.7 °F 25.1 °F 34.3 °F 91% 29.49 in 10.0 mi WNW 24.2 mph 32.2 mph N/A   Overcast
9:16 AM 36.9 °F 26.8 °F 34.2 °F 90% 29.50 in 10.0 mi WNW 18.4 mph 31.1 mph N/A   Overcast
9:35 AM 36.9 °F 24.9 °F 33.8 °F 89% 29.50 in 10.0 mi WNW 26.5 mph 36.8 mph N/A   Overcast
9:36 AM 36.9 °F 25.4 °F 33.8 °F 89% 29.50 in 10.0 mi WNW 24.2 mph 35.7 mph N/A   Overcast
9:55 AM 36.7 °F 26.0 °F 33.8 °F 89% 29.50 in 10.0 mi WNW 20.7 mph 32.2 mph N/A   Overcast
10:18 AM 36.5 °F 24.9 °F 33.6 °F 89% 29.51 in 10.0 mi WNW 24.2 mph 32.2 mph N/A   Overcast
10:37 AM 36.5 °F 25.2 °F 33.3 °F 88% 29.52 in 10.0 mi WNW 23.0 mph 33.4 mph N/A   Overcast
10:56 AM 36.7 °F 25.4 °F 33.4 °F 88% 29.52 in 10.0 mi WNW 23.0 mph 28.8 mph N/A   Overcast
11:15 AM 37.0 °F 26.7 °F 33.4 °F 87% 29.53 in 10.0 mi WNW 19.6 mph 34.5 mph N/A   Overcast
11:35 AM 36.9 °F 25.6 °F 32.9 °F 86% 29.53 in 10.0 mi WNW 23.0 mph 28.8 mph N/A   Overcast
11:39 AM 37.0 °F 26.4 °F 32.5 °F 84% 29.53 in 10.0 mi WNW 20.7 mph 31.1 mph N/A   Overcast
12:15 PM 38.5 °F 27.3 °F 32.2 °F 78% 29.54 in 10.0 mi WNW 25.3 mph 33.4 mph N/A   Overcast
12:35 PM 38.7 °F 28.0 °F 32.4 °F 78% 29.55 in 10.0 mi West 23.0 mph 32.2 mph N/A   Overcast
12:36 PM 38.5 °F 28.1 °F 32.2 °F 78% 29.55 in 10.0 mi WNW 21.9 mph 32.2 mph N/A   Overcast
12:55 PM 37.9 °F 26.8 °F 32.0 °F 79% 29.55 in 10.0 mi West 24.2 mph 32.2 mph N/A   Overcast
1:18 PM 39.2 °F 28.5 °F 32.0 °F 75% 29.55 in 10.0 mi West 24.2 mph 36.8 mph N/A   Overcast
1:37 PM 38.7 °F 28.6 °F 31.8 °F 76% 29.56 in 10.0 mi West 20.7 mph 35.7 mph N/A   Overcast
1:56 PM 39.2 °F 29.6 °F 32.2 °F 76% 29.56 in 10.0 mi WNW 19.6 mph 26.5 mph N/A   Overcast
2:15 PM 39.0 °F 28.0 °F 32.0 °F 76% 29.56 in 10.0 mi West 25.3 mph 32.2 mph N/A   Overcast
2:16 PM 39.2 °F 28.3 °F 32.0 °F 75% 29.56 in 10.0 mi West 25.3 mph 32.2 mph N/A   Overcast
2:35 PM 39.2 °F 29.0 °F 32.0 °F 75% 29.57 in 10.0 mi WNW 21.9 mph 32.2 mph N/A   Overcast
2:39 PM 39.4 °F 28.1 °F 32.0 °F 75% 29.57 in 10.0 mi WNW 27.6 mph 33.4 mph N/A   Overcast
2:57 PM 39.7 °F 29.7 °F 32.0 °F 74% 29.58 in 10.0 mi WNW 21.9 mph 34.5 mph N/A   Overcast
3:15 PM 39.7 °F 29.5 °F 32.0 °F 74% 29.58 in 10.0 mi WNW 23.0 mph 29.9 mph N/A   Overcast
3:35 PM 40.1 °F 30.5 °F 32.0 °F 73% 29.59 in 10.0 mi WNW 20.7 mph 29.9 mph N/A   Overcast
3:36 PM 40.1 °F 30.5 °F 32.0 °F 73% 29.59 in 10.0 mi WNW 20.7 mph 29.9 mph N/A   Overcast
3:55 PM 40.5 °F 31.5 °F 32.0 °F 72% 29.60 in 10.0 mi WNW 18.4 mph 29.9 mph N/A   Overcast
4:18 PM 41.0 °F 31.9 °F 32.0 °F 70% 29.61 in 10.0 mi WNW 19.6 mph 34.5 mph N/A   Overcast
4:37 PM 40.5 °F 31.2 °F 32.0 °F 72% 29.62 in 10.0 mi WNW 19.6 mph 29.9 mph N/A   Overcast
4:56 PM 40.5 °F 30.7 °F 32.0 °F 72% 29.63 in 10.0 mi WNW 21.9 mph 27.6 mph N/A   Overcast
5:15 PM 40.5 °F 30.2 °F 32.0 °F 72% 29.64 in 10.0 mi WNW 24.2 mph 31.1 mph N/A   Overcast
5:16 PM 40.3 °F 30.7 °F 32.0 °F 72% 29.64 in 10.0 mi WNW 20.7 mph 31.1 mph N/A   Overcast
5:35 PM 40.3 °F 31.3 °F 32.0 °F 72% 29.65 in 10.0 mi WNW 18.4 mph 28.8 mph N/A   Overcast
5:39 PM 40.1 °F 31.6 °F 32.0 °F 73% 29.65 in 10.0 mi WNW 16.1 mph 28.8 mph N/A   Overcast
5:58 PM 40.1 °F 32.0 °F 32.0 °F 73% 29.65 in 10.0 mi WNW 15.0 mph 24.2 mph N/A   Overcast
6:15 PM 40.3 °F 30.7 °F 32.0 °F 72% 29.65 in 10.0 mi WNW 20.7 mph 25.3 mph N/A   Overcast
6:35 PM 40.3 °F 31.3 °F 32.0 °F 72% 29.66 in 10.0 mi WNW 18.4 mph 21.9 mph N/A   Overcast
6:36 PM 40.3 °F 31.6 °F 32.0 °F 72% 29.66 in 10.0 mi WNW 17.3 mph 21.9 mph N/A   Overcast
6:55 PM 40.3 °F 31.6 °F 32.0 °F 72% 29.66 in 10.0 mi WNW 17.3 mph 26.5 mph N/A   Overcast
6:56 PM 40.3 °F 31.6 °F 32.0 °F 72% 29.66 in 10.0 mi WNW 17.3 mph 26.5 mph N/A   Overcast
7:18 PM 40.3 °F 31.9 °F 32.0 °F 72% 29.67 in 10.0 mi WNW 16.1 mph 25.3 mph N/A   Overcast
7:36 PM 40.3 °F 30.7 °F 31.8 °F 72% 29.67 in 10.0 mi WNW 20.7 mph 25.3 mph N/A   Overcast
7:56 PM 40.1 °F 31.6 °F 32.0 °F 73% 29.68 in 10.0 mi WNW 16.1 mph 23.0 mph N/A   Overcast
8:15 PM 40.1 °F 32.4 °F 31.8 °F 72% 29.69 in 10.0 mi WNW 13.8 mph 28.8 mph N/A   Overcast
8:35 PM 39.7 °F 31.2 °F 31.8 °F 73% 29.69 in 10.0 mi WNW 16.1 mph 20.7 mph N/A   Overcast
8:39 PM 40.1 °F 31.6 °F 31.6 °F 72% 29.69 in 10.0 mi WNW 16.1 mph 20.7 mph N/A   Overcast
8:58 PM 39.7 °F 30.9 °F 31.6 °F 73% 29.69 in 10.0 mi WNW 17.3 mph 23.0 mph N/A   Overcast
9:15 PM 39.6 °F 32.1 °F 31.3 °F 72% 29.69 in 10.0 mi West 12.7 mph 21.9 mph N/A   Overcast
9:35 PM 39.0 °F 31.8 °F 31.8 °F 75% 29.69 in 10.0 mi West 11.5 mph - N/A   Overcast
9:36 PM 39.0 °F 31.8 °F 31.8 °F 75% 29.69 in 10.0 mi West 11.5 mph - N/A   Overcast
9:55 PM 37.9 °F 30.5 °F 31.5 °F 77% 29.69 in 10.0 mi West 11.5 mph - N/A   Scattered Clouds
9:56 PM 37.9 °F 30.5 °F 31.5 °F 77% 29.69 in 10.0 mi West 11.5 mph - N/A   Scattered Clouds
10:19 PM 37.8 °F 31.3 °F 31.1 °F 77% 29.70 in 10.0 mi West 9.2 mph - N/A   Mostly Cloudy
10:37 PM 37.4 °F 30.3 °F 31.1 °F 78% 29.70 in 10.0 mi West 10.4 mph - N/A   Overcast
10:56 PM 37.4 °F 30.8 °F 31.1 °F 78% 29.71 in 10.0 mi West 9.2 mph - N/A   Overcast
11:15 PM 36.1 °F 29.9 °F 30.9 °F 81% 29.71 in 10.0 mi WNW 8.1 mph - N/A   Mostly Cloudy
11:35 PM 35.8 °F 30.1 °F 30.9 °F 82% 29.71 in 10.0 mi WNW 6.9 mph - N/A   Mostly Cloudy
11:39 PM 35.6 °F 29.9 °F 30.9 °F 83% 29.71 in 10.0 mi WNW 6.9 mph - N/A   Mostly Cloudy
11:57 PM 35.2 °F 30.3 °F 30.9 °F 84% 29.71 in 10.0 mi West 5.8 mph - N/A   Overcast